createdAt,value
2022-12-29T00:01:32.284Z,27.07
2022-12-29T00:04:00.655Z,26.87
2022-12-29T00:06:28.678Z,26.40
2022-12-29T00:08:59.837Z,29.05
2022-12-29T00:11:28.737Z,27.48
2022-12-29T00:14:15.238Z,27.42
2022-12-29T00:16:46.045Z,25.92
2022-12-29T00:19:32.581Z,21.33
2022-12-29T00:22:19.237Z,21.25
2022-12-29T00:25:06.768Z,22.62
2022-12-29T00:27:53.488Z,19.75
2022-12-29T00:30:43.319Z,16.90
2022-12-29T00:33:37.875Z,13.65
2022-12-29T00:36:28.503Z,16.70
2022-12-29T00:39:24.300Z,19.67
2022-12-29T00:42:11.545Z,16.45
2022-12-29T00:44:39.308Z,16.30
2022-12-29T00:47:07.236Z,17.42
2022-12-29T00:49:35.021Z,17.05
2022-12-29T00:52:08.709Z,22.40
2022-12-29T00:54:39.261Z,23.98
2022-12-29T00:57:09.032Z,27.95
2022-12-29T00:59:38.833Z,22.15
2022-12-29T01:02:07.195Z,23.05
2022-12-29T01:04:35.543Z,23.42
2022-12-29T01:07:02.966Z,20.92
2022-12-29T01:09:48.994Z,26.60
2022-12-29T01:12:16.553Z,22.95
2022-12-29T01:14:47.226Z,25.60
2022-12-29T01:17:15.006Z,22.37
2022-12-29T01:19:43.373Z,21.95
2022-12-29T01:22:11.159Z,24.95
2022-12-29T01:24:39.107Z,20.27
2022-12-29T01:27:06.489Z,23.30
2022-12-29T01:29:34.899Z,26.70
2022-12-29T01:32:03.051Z,23.50
2022-12-29T01:34:31.230Z,24.82
2022-12-29T01:36:59.384Z,23.05
2022-12-29T01:39:27.596Z,21.07
2022-12-29T01:41:55.315Z,26.65
2022-12-29T01:44:53.044Z,21.90
2022-12-29T01:47:40.106Z,20.65
2022-12-29T01:50:24.119Z,23.27
2022-12-29T01:53:13.953Z,21.45
2022-12-29T01:55:48.212Z,24.90
2022-12-29T01:58:17.628Z,24.00
2022-12-29T02:00:47.230Z,22.42
2022-12-29T02:03:16.917Z,21.45
2022-12-29T02:05:58.127Z,21.50
2022-12-29T02:08:29.429Z,25.80
2022-12-29T02:10:58.207Z,21.35
2022-12-29T02:13:27.414Z,23.80
2022-12-29T02:16:22.239Z,18.55
2022-12-29T02:19:17.006Z,23.57
2022-12-29T02:22:04.097Z,21.42
2022-12-29T02:25:04.042Z,19.20
2022-12-29T02:27:55.734Z,21.60
2022-12-29T02:30:37.868Z,22.80
2022-12-29T02:33:12.054Z,22.27
2022-12-29T02:35:52.868Z,19.67
2022-12-29T02:38:34.011Z,17.42
2022-12-29T02:41:27.297Z,19.45
2022-12-29T02:44:32.019Z,21.23
2022-12-29T02:47:18.750Z,20.77
2022-12-29T02:49:50.651Z,19.07
2022-12-29T02:52:22.066Z,18.27
2022-12-29T02:54:51.996Z,20.32
2022-12-29T02:57:27.747Z,19.65
2022-12-29T02:59:59.296Z,19.00
2022-12-29T03:02:47.380Z,21.57
2022-12-29T03:05:25.769Z,21.23
2022-12-29T03:08:00.319Z,18.42
2022-12-29T03:10:44.162Z,19.07
2022-12-29T03:13:48.492Z,25.52
2022-12-29T03:16:22.891Z,20.10
2022-12-29T03:19:03.687Z,18.02
2022-12-29T03:22:13.480Z,19.32
2022-12-29T03:24:47.930Z,22.37
2022-12-29T03:29:52.729Z,19.37
2022-12-29T03:32:23.513Z,22.52
2022-12-29T03:34:52.223Z,27.07
2022-12-29T03:37:26.533Z,26.85
2022-12-29T03:39:54.239Z,23.87
2022-12-29T03:42:25.577Z,26.07
2022-12-29T03:44:56.938Z,25.77
2022-12-29T03:47:31.780Z,21.70
2022-12-29T03:50:00.499Z,19.65
2022-12-29T03:52:28.920Z,21.85
2022-12-29T03:54:56.535Z,22.50
2022-12-29T03:57:24.958Z,22.00
2022-12-29T03:59:54.265Z,19.73
2022-12-29T04:02:22.578Z,24.65
2022-12-29T04:04:50.569Z,21.60
2022-12-29T04:07:18.581Z,23.67
2022-12-29T04:09:46.014Z,23.67
2022-12-29T04:12:16.946Z,22.05
2022-12-29T04:14:44.515Z,20.80
2022-12-29T04:17:12.913Z,19.40
2022-12-29T04:19:41.570Z,22.35
2022-12-29T04:22:12.507Z,19.15
2022-12-29T04:24:41.208Z,19.48
2022-12-29T04:27:11.225Z,21.27
2022-12-29T04:29:41.420Z,19.65
2022-12-29T04:32:11.024Z,21.45
2022-12-29T04:34:40.442Z,19.00
2022-12-29T04:37:08.445Z,20.65
2022-12-29T04:39:36.365Z,23.05
2022-12-29T04:42:05.095Z,22.50
2022-12-29T04:44:33.954Z,20.50
2022-12-29T04:47:05.241Z,22.02
2022-12-29T04:49:37.292Z,21.05
2022-12-29T04:52:23.316Z,23.42
2022-12-29T04:54:51.086Z,22.25
2022-12-29T04:57:20.784Z,18.57
2022-12-29T04:59:50.573Z,20.40
2022-12-29T05:02:22.519Z,18.82
2022-12-29T05:04:51.667Z,20.95
2022-12-29T05:07:21.315Z,18.57
2022-12-29T05:09:50.343Z,17.15
2022-12-29T05:12:18.080Z,23.05
2022-12-29T05:14:48.111Z,24.20
2022-12-29T05:17:16.656Z,19.60
2022-12-29T05:19:45.275Z,18.92
2022-12-29T05:22:13.346Z,19.70
2022-12-29T05:24:42.816Z,21.70
2022-12-29T05:27:11.309Z,21.23
2022-12-29T05:29:40.857Z,23.00
2022-12-29T05:32:09.449Z,20.95
2022-12-29T05:34:37.861Z,22.58
2022-12-29T05:37:06.348Z,22.67
2022-12-29T05:39:34.148Z,25.00
2022-12-29T05:42:03.875Z,23.27
2022-12-29T05:44:39.426Z,23.45
2022-12-29T05:47:14.960Z,22.17
2022-12-29T05:49:51.274Z,24.92
2022-12-29T05:52:36.159Z,21.87
2022-12-29T05:55:04.789Z,23.02
2022-12-29T05:57:34.616Z,20.72
2022-12-29T06:00:08.193Z,22.82
2022-12-29T06:02:37.982Z,21.50
2022-12-29T06:05:07.574Z,21.42
2022-12-29T06:07:36.801Z,21.25
2022-12-29T06:12:50.939Z,24.87
2022-12-29T06:15:19.027Z,21.07
2022-12-29T06:17:48.121Z,23.87
2022-12-29T06:20:21.400Z,25.92
2022-12-29T06:22:48.878Z,22.10
2022-12-29T06:25:17.511Z,21.97
2022-12-29T06:27:45.410Z,24.72
2022-12-29T06:30:14.323Z,24.12
2022-12-29T06:32:42.538Z,23.25
2022-12-29T06:35:12.473Z,22.60
2022-12-29T06:37:42.000Z,26.85
2022-12-29T06:40:10.940Z,21.97
2022-12-29T06:42:45.714Z,22.50
2022-12-29T06:45:15.667Z,23.42
2022-12-29T06:47:43.188Z,24.63
2022-12-29T06:50:11.165Z,23.98
2022-12-29T06:52:39.253Z,26.87
2022-12-29T06:55:10.562Z,25.77
2022-12-29T06:57:38.438Z,29.55
2022-12-29T07:00:07.570Z,24.15
2022-12-29T07:02:35.774Z,29.32
2022-12-29T07:05:04.456Z,21.97
2022-12-29T07:07:33.084Z,26.75
2022-12-29T07:10:01.320Z,24.37
2022-12-29T07:12:29.725Z,24.65
2022-12-29T07:14:57.333Z,26.95
2022-12-29T07:17:25.904Z,25.62
2022-12-29T07:19:53.684Z,27.77
2022-12-29T07:22:22.179Z,24.35
2022-12-29T07:24:50.196Z,23.57
2022-12-29T07:27:18.067Z,25.32
2022-12-29T07:29:45.508Z,30.85
2022-12-29T07:32:16.761Z,34.78
2022-12-29T07:34:47.499Z,32.05
2022-12-29T07:37:19.160Z,26.65
2022-12-29T07:39:47.162Z,25.48
2022-12-29T07:42:15.248Z,28.50
2022-12-29T07:44:45.078Z,29.70
2022-12-29T07:47:30.029Z,25.88
2022-12-29T07:49:58.133Z,25.52
2022-12-29T07:52:26.427Z,29.75
2022-12-29T07:54:55.872Z,28.32
2022-12-29T07:57:28.103Z,28.83
2022-12-29T07:59:59.584Z,31.07
2022-12-29T08:02:30.987Z,35.00
2022-12-29T08:04:58.872Z,33.48
2022-12-29T08:07:26.781Z,34.05
2022-12-29T08:09:54.684Z,31.65
2022-12-29T08:12:22.961Z,34.98
2022-12-29T08:14:51.200Z,33.00
2022-12-29T08:17:19.369Z,37.75
2022-12-29T08:19:47.323Z,27.73
2022-12-29T08:22:16.569Z,33.83
2022-12-29T08:24:44.977Z,31.97
2022-12-29T08:27:32.726Z,28.67
2022-12-29T08:30:01.816Z,30.80
2022-12-29T08:32:29.860Z,33.05
2022-12-29T08:34:58.913Z,33.88
2022-12-29T08:37:31.230Z,29.75
2022-12-29T08:39:58.958Z,30.90
2022-12-29T08:42:28.253Z,31.52
2022-12-29T08:44:56.314Z,31.68
2022-12-29T08:47:24.266Z,33.38
2022-12-29T08:49:52.081Z,35.13
2022-12-29T08:52:20.632Z,37.85
2022-12-29T08:54:49.794Z,34.67
2022-12-29T08:57:20.847Z,35.73
2022-12-29T08:59:53.107Z,30.08
2022-12-29T09:02:24.271Z,30.00
2022-12-29T09:04:54.940Z,29.98
2022-12-29T09:07:22.824Z,29.52
2022-12-29T09:09:51.510Z,29.18
2022-12-29T09:12:19.961Z,32.60
2022-12-29T09:14:48.236Z,27.07
2022-12-29T09:17:34.645Z,33.38
2022-12-29T09:20:02.255Z,28.52
2022-12-29T09:22:30.060Z,30.10
2022-12-29T09:24:57.980Z,30.62
2022-12-29T09:27:25.755Z,39.40
2022-12-29T09:29:53.545Z,37.98
2022-12-29T09:32:23.522Z,32.42
2022-12-29T09:34:51.249Z,35.03
2022-12-29T09:37:19.014Z,34.53
2022-12-29T09:39:52.275Z,32.65
2022-12-29T09:42:22.998Z,32.85
2022-12-29T09:45:12.668Z,31.95
2022-12-29T09:47:43.086Z,39.30
2022-12-29T09:50:23.175Z,36.00
2022-12-29T09:52:57.297Z,35.10
2022-12-29T09:55:39.135Z,31.37
2022-12-29T09:58:28.118Z,34.45
2022-12-29T10:01:00.111Z,38.85
2022-12-29T10:03:43.025Z,34.20
2022-12-29T10:06:17.555Z,35.70
2022-12-29T10:09:05.691Z,35.00
2022-12-29T10:11:56.177Z,35.08
2022-12-29T10:14:45.840Z,40.43
2022-12-29T10:17:17.688Z,36.88
2022-12-29T10:19:49.345Z,35.58
2022-12-29T10:22:26.617Z,37.83
2022-12-29T10:24:57.814Z,39.23
2022-12-29T10:27:26.042Z,34.85
2022-12-29T10:29:56.899Z,35.95
2022-12-29T10:32:40.527Z,37.35
2022-12-29T10:35:37.583Z,36.95
2022-12-29T10:38:34.696Z,38.05
2022-12-29T10:41:12.481Z,35.28
2022-12-29T10:43:50.897Z,36.85
2022-12-29T10:46:31.205Z,38.48
2022-12-29T10:48:59.034Z,38.70
2022-12-29T10:51:29.506Z,34.27
2022-12-29T10:54:01.515Z,39.75
2022-12-29T10:56:39.265Z,37.70
2022-12-29T11:02:41.734Z,34.30
2022-12-29T11:05:30.140Z,39.98
2022-12-29T11:08:11.488Z,35.65
2022-12-29T11:10:45.117Z,37.15
2022-12-29T11:13:29.886Z,41.28
2022-12-29T11:15:57.930Z,35.33
2022-12-29T11:18:39.860Z,42.38
2022-12-29T11:21:11.145Z,35.68
2022-12-29T11:23:43.538Z,43.08
2022-12-29T11:26:33.818Z,41.88
2022-12-29T11:29:16.565Z,46.40
2022-12-29T11:31:51.483Z,40.15
2022-12-29T11:34:33.384Z,39.83
2022-12-29T11:37:07.731Z,42.98
2022-12-29T11:39:42.334Z,38.55
2022-12-29T11:42:19.505Z,39.95
2022-12-29T11:44:52.169Z,41.75
2022-12-29T11:47:26.987Z,49.58
2022-12-29T11:49:57.593Z,46.37
2022-12-29T11:52:29.349Z,48.63
2022-12-29T11:54:58.444Z,47.70
2022-12-29T11:57:27.180Z,52.15
2022-12-29T11:59:59.677Z,47.48
2022-12-29T12:02:40.524Z,47.58
2022-12-29T12:05:08.444Z,54.35
2022-12-29T12:07:45.996Z,50.03
2022-12-29T12:10:24.034Z,48.70
2022-12-29T12:12:55.703Z,48.55
2022-12-29T12:15:44.992Z,54.25
2022-12-29T12:18:15.223Z,51.08
2022-12-29T12:21:05.596Z,51.20
2022-12-29T12:23:52.448Z,50.52
2022-12-29T12:26:26.394Z,47.38
2022-12-29T12:29:04.800Z,45.78
2022-12-29T12:31:39.558Z,64.65
2022-12-29T12:36:52.585Z,51.00
2022-12-29T12:39:53.483Z,50.83
2022-12-29T12:42:51.370Z,52.58
2022-12-29T12:45:56.635Z,47.58
2022-12-29T12:49:02.374Z,51.05
2022-12-29T12:52:04.847Z,51.48
2022-12-29T12:54:50.636Z,53.05
2022-12-29T12:57:46.071Z,54.05
2022-12-29T13:00:23.107Z,52.75
2022-12-29T13:03:14.917Z,54.25
2022-12-29T13:05:59.210Z,55.75
2022-12-29T13:08:48.826Z,56.33
2022-12-29T13:11:28.750Z,53.13
2022-12-29T13:14:18.451Z,56.75
2022-12-29T13:17:05.119Z,53.15
2022-12-29T13:19:53.282Z,55.08
2022-12-29T13:22:25.239Z,55.67
2022-12-29T13:25:20.401Z,61.70
2022-12-29T13:27:58.241Z,60.33
2022-12-29T13:30:41.908Z,52.62
2022-12-29T13:33:32.962Z,56.00
2022-12-29T13:36:07.557Z,64.50
2022-12-29T13:38:48.058Z,55.67
2022-12-29T13:41:19.991Z,57.35
2022-12-29T13:43:51.821Z,58.90
2022-12-29T13:46:23.551Z,56.33
2022-12-29T13:49:01.565Z,60.48
2022-12-29T13:51:31.237Z,56.33
2022-12-29T13:54:25.627Z,54.08
2022-12-29T13:57:09.933Z,60.77
2022-12-29T13:59:47.820Z,58.40
2022-12-29T14:02:22.698Z,54.38
2022-12-29T14:05:00.262Z,56.83
2022-12-29T14:07:29.610Z,55.38
2022-12-29T14:10:01.432Z,58.87
2022-12-29T14:12:37.901Z,54.63
2022-12-29T14:15:15.008Z,68.65
2022-12-29T14:17:45.955Z,52.33
2022-12-29T14:20:24.834Z,57.45
2022-12-29T14:23:05.351Z,58.75
2022-12-29T14:25:56.714Z,54.23
2022-12-29T14:28:32.839Z,53.45
2022-12-29T14:31:08.826Z,55.75
2022-12-29T14:33:36.737Z,54.05
2022-12-29T14:36:29.438Z,56.80
2022-12-29T14:39:22.033Z,55.03
2022-12-29T14:41:51.229Z,59.05
2022-12-29T14:44:21.685Z,57.88
2022-12-29T14:46:58.782Z,58.73
2022-12-29T14:49:35.783Z,58.33
2022-12-29T14:52:10.362Z,55.73
2022-12-29T14:54:42.030Z,71.20
2022-12-29T14:57:22.054Z,78.60
2022-12-29T14:59:52.129Z,73.97
2022-12-29T15:02:22.921Z,72.42
2022-12-29T15:04:53.121Z,70.35
2022-12-29T15:07:21.397Z,58.17
2022-12-29T15:09:55.733Z,65.17
2022-12-29T15:12:42.973Z,62.78
2022-12-29T15:15:28.374Z,66.17
2022-12-29T15:17:56.765Z,65.37
2022-12-29T15:20:27.794Z,56.45
2022-12-29T15:22:59.257Z,61.08
2022-12-29T15:25:27.893Z,63.78
2022-12-29T15:27:59.631Z,56.70
2022-12-29T15:30:27.297Z,59.20
2022-12-29T15:32:55.139Z,60.70
2022-12-29T15:35:36.058Z,60.20
2022-12-29T15:38:23.489Z,63.13
2022-12-29T15:40:55.798Z,59.63
2022-12-29T15:43:47.413Z,62.20
2022-12-29T15:46:15.181Z,57.13
2022-12-29T15:48:43.529Z,59.13
2022-12-29T15:51:18.413Z,60.40
2022-12-29T15:53:48.683Z,64.05
2022-12-29T15:56:17.943Z,64.42
2022-12-29T15:58:51.591Z,64.90
2022-12-29T16:01:23.862Z,62.93
2022-12-29T16:03:56.555Z,73.33
2022-12-29T16:06:33.734Z,69.12
2022-12-29T16:09:08.210Z,69.07
2022-12-29T16:14:18.852Z,70.90
2022-12-29T16:16:48.871Z,72.65
2022-12-29T16:19:32.622Z,71.02
2022-12-29T16:22:02.443Z,70.08
2022-12-29T16:24:33.596Z,70.57
2022-12-29T16:27:11.106Z,67.17
2022-12-29T16:29:40.877Z,61.37
2022-12-29T16:32:27.267Z,65.40
2022-12-29T16:35:17.034Z,63.95
2022-12-29T16:37:45.774Z,65.40
2022-12-29T16:40:23.550Z,73.07
2022-12-29T16:42:52.596Z,62.13
2022-12-29T16:45:24.708Z,66.80
2022-12-29T16:48:14.022Z,62.53
2022-12-29T16:50:44.773Z,61.92
2022-12-29T16:53:40.183Z,63.83
2022-12-29T16:56:17.319Z,70.95
2022-12-29T16:58:50.642Z,71.67
2022-12-29T17:01:20.479Z,76.20
2022-12-29T17:03:54.993Z,74.00
2022-12-29T17:06:24.409Z,72.60
2022-12-29T17:08:53.679Z,68.57
2022-12-29T17:11:58.405Z,66.12
2022-12-29T17:14:40.338Z,60.90
2022-12-29T17:17:24.507Z,60.98
2022-12-29T17:19:54.670Z,65.47
2022-12-29T17:22:26.053Z,69.17
2022-12-29T17:24:56.029Z,65.22
2022-12-29T17:27:30.619Z,67.92
2022-12-29T17:30:05.911Z,64.30
2022-12-29T17:32:34.347Z,64.07
2022-12-29T17:35:02.567Z,70.47
2022-12-29T17:37:34.439Z,63.90
2022-12-29T17:40:02.615Z,68.20
2022-12-29T17:42:32.796Z,63.15
2022-12-29T17:45:02.765Z,66.97
2022-12-29T17:47:30.948Z,64.75
2022-12-29T17:49:59.014Z,72.22
2022-12-29T17:52:27.005Z,68.72
2022-12-29T17:54:56.317Z,62.83
2022-12-29T17:57:24.283Z,69.07
2022-12-29T17:59:52.598Z,65.70
2022-12-29T18:02:34.680Z,66.22
2022-12-29T18:05:02.153Z,71.30
2022-12-29T18:07:35.715Z,67.20
2022-12-29T18:10:00.450Z,67.72
2022-12-29T18:12:34.959Z,67.70
2022-12-29T18:15:02.456Z,68.78
2022-12-29T18:17:30.224Z,64.92
2022-12-29T18:19:58.162Z,69.32
2022-12-29T18:22:30.028Z,72.78
2022-12-29T18:24:57.838Z,68.80
2022-12-29T18:27:27.106Z,65.92
2022-12-29T18:29:54.610Z,67.42
2022-12-29T18:32:22.541Z,67.53
2022-12-29T18:34:50.334Z,65.28
2022-12-29T18:37:18.285Z,75.47
2022-12-29T18:39:46.683Z,71.62
2022-12-29T18:42:17.683Z,71.07
2022-12-29T18:44:45.895Z,72.45
2022-12-29T18:47:14.181Z,71.62
2022-12-29T18:49:42.261Z,70.42
2022-12-29T18:52:12.725Z,70.52
2022-12-29T18:54:40.773Z,70.25
2022-12-29T18:57:08.512Z,72.85
2022-12-29T18:59:36.561Z,71.87
2022-12-29T19:02:04.373Z,70.57
2022-12-29T19:04:32.457Z,69.82
2022-12-29T19:07:00.843Z,71.95
2022-12-29T19:09:28.870Z,72.87
2022-12-29T19:11:56.259Z,67.00
2022-12-29T19:14:24.495Z,69.27
2022-12-29T19:16:51.885Z,66.85
2022-12-29T19:19:19.705Z,65.20
2022-12-29T19:21:47.910Z,64.17
2022-12-29T19:24:16.197Z,66.35
2022-12-29T19:26:45.190Z,65.15
2022-12-29T19:29:16.563Z,68.12
2022-12-29T19:31:44.366Z,70.12
2022-12-29T19:34:17.676Z,68.10
2022-12-29T19:36:46.206Z,69.85
2022-12-29T19:39:18.343Z,75.28
2022-12-29T19:41:46.466Z,74.27
2022-12-29T19:44:14.688Z,71.17
2022-12-29T19:46:42.341Z,70.95
2022-12-29T19:49:10.478Z,76.50
2022-12-29T19:51:38.516Z,68.62
2022-12-29T19:54:06.044Z,70.37
2022-12-29T19:56:33.907Z,69.85
2022-12-29T19:59:02.458Z,72.42
2022-12-29T20:01:30.619Z,78.80
2022-12-29T20:03:59.044Z,75.30
2022-12-29T20:06:26.706Z,73.12
2022-12-29T20:08:55.939Z,69.30
2022-12-29T20:11:23.212Z,63.35
2022-12-29T20:13:51.979Z,66.70
2022-12-29T20:16:21.163Z,65.00
2022-12-29T20:18:49.622Z,66.00
2022-12-29T20:21:23.487Z,65.75
2022-12-29T20:23:53.568Z,67.90
2022-12-29T20:26:29.073Z,62.17
2022-12-29T20:28:58.648Z,64.77
2022-12-29T20:31:29.305Z,65.15
2022-12-29T20:33:58.967Z,70.40
2022-12-29T20:36:29.991Z,67.87
2022-12-29T20:39:00.129Z,69.97
2022-12-29T20:41:29.083Z,65.55
2022-12-29T20:43:57.986Z,66.12
2022-12-29T20:46:35.364Z,66.17
2022-12-29T20:49:02.208Z,70.40
2022-12-29T20:52:04.381Z,69.32
2022-12-29T20:54:10.914Z,64.55
2022-12-29T20:56:39.423Z,62.15
2022-12-29T20:59:27.021Z,69.80
2022-12-29T21:01:41.011Z,70.67
2022-12-29T21:04:10.992Z,81.97
2022-12-29T21:06:38.893Z,70.65
2022-12-29T21:09:07.873Z,75.25
2022-12-29T21:11:38.453Z,69.03
2022-12-29T21:14:06.490Z,69.50
2022-12-29T21:16:34.462Z,68.22
2022-12-29T21:19:04.350Z,64.47
2022-12-29T21:21:32.071Z,68.72
2022-12-29T21:24:01.590Z,71.60
2022-12-29T21:26:29.863Z,65.10
2022-12-29T21:28:57.703Z,63.30
2022-12-29T21:31:29.183Z,66.90
2022-12-29T21:33:58.464Z,67.82
2022-12-29T21:36:30.231Z,65.22
2022-12-29T21:38:58.406Z,68.87
2022-12-29T21:41:26.994Z,65.55
2022-12-29T21:44:13.384Z,64.32
2022-12-29T21:46:44.967Z,63.55
2022-12-29T21:49:13.074Z,58.30
2022-12-29T21:51:54.710Z,65.87
2022-12-29T21:54:49.873Z,68.22
2022-12-29T21:57:37.708Z,60.48
2022-12-29T22:00:26.280Z,63.38
2022-12-29T22:03:21.931Z,58.45
2022-12-29T22:06:03.033Z,52.33
2022-12-29T22:08:50.623Z,56.68
2022-12-29T22:11:36.473Z,55.00
2022-12-29T22:14:04.730Z,57.48
2022-12-29T22:16:32.692Z,56.08
2022-12-29T22:19:00.853Z,55.83
2022-12-29T22:21:28.361Z,56.68
2022-12-29T22:23:56.048Z,55.50
2022-12-29T22:26:24.280Z,51.80
2022-12-29T22:28:52.813Z,53.50
2022-12-29T22:31:29.805Z,55.73
2022-12-29T22:33:59.824Z,55.88
2022-12-29T22:36:29.492Z,55.80
2022-12-29T22:38:57.191Z,56.10
2022-12-29T22:41:24.915Z,55.67
2022-12-29T22:43:53.384Z,52.83
2022-12-29T22:46:21.908Z,51.55
2022-12-29T22:48:49.750Z,50.67
2022-12-29T22:51:17.328Z,50.55
2022-12-29T22:53:46.093Z,48.58
2022-12-29T22:56:14.935Z,48.87
2022-12-29T22:58:44.624Z,50.05
2022-12-29T23:01:15.199Z,44.35
2022-12-29T23:03:43.951Z,45.67
2022-12-29T23:06:14.290Z,48.15
2022-12-29T23:08:42.833Z,40.55
2022-12-29T23:11:14.596Z,43.52
2022-12-29T23:13:45.581Z,47.25
2022-12-29T23:16:15.418Z,44.40
2022-12-29T23:18:44.818Z,40.98
2022-12-29T23:21:12.884Z,42.60
2022-12-29T23:24:03.889Z,41.28
2022-12-29T23:26:34.863Z,43.15
2022-12-29T23:29:04.853Z,44.77
2022-12-29T23:34:15.673Z,43.52
2022-12-29T23:36:43.997Z,44.93
2022-12-29T23:39:15.814Z,45.10
2022-12-29T23:41:43.520Z,41.18
2022-12-29T23:44:11.638Z,40.48
2022-12-29T23:46:41.164Z,40.58
2022-12-29T23:49:10.051Z,39.48
2022-12-29T23:51:38.913Z,37.78
2022-12-29T23:54:07.288Z,36.68
2022-12-29T23:56:34.726Z,39.18
2022-12-29T23:59:06.367Z,38.53
